Time;durP1;ratioP1;P1;durP2;ratioP2;P2;SDS_P1;SDS_P2;PMS_P1;PMS_P2;Temp;Humidity;BMP_temperature;BMP_pressure;BME280_temperature;BME280_humidity;BME280_pressure;Samples;Min_cycle;Max_cycle;Signal;HPM_P1;HPM_P2
2021/10/05 00:00:02;;;;;;;4.90;3.00;;;;;;;;;;5132402;27;20442;-78
2021/10/05 00:02:29;;;;;;;2.97;2.63;;;;;;;;;;5121974;27;20557;-80
2021/10/05 00:04:56;;;;;;;5.43;2.80;;;;;;;;;;5112908;27;20451;-82
2021/10/05 00:07:25;;;;;;;3.47;2.83;;;;;;;;;;5115711;27;20433;-80
2021/10/05 00:09:52;;;;;;;3.40;2.53;;;;;;;;;;5102447;27;20455;-82
2021/10/05 00:12:19;;;;;;;2.87;2.67;;;;;;;;;;5109183;28;20494;-79
2021/10/05 00:14:46;;;;;;;4.00;2.77;;;;;;;;;;5111638;27;20527;-81
2021/10/05 00:17:13;;;;;;;3.10;2.30;;;;;;;;;;5111673;28;20799;-81
2021/10/05 00:19:41;;;;;;;5.30;3.00;;;;;;;;;;5101925;27;20469;-79
2021/10/05 00:22:08;;;;;;;3.90;3.07;;;;;;;;;;5111525;28;20450;-79
2021/10/05 00:24:36;;;;;;;4.23;2.37;;;;;;;;;;5111582;28;20457;-81
2021/10/05 00:27:04;;;;;;;3.20;2.60;;;;;;;;;;5114762;28;20813;-79
2021/10/05 00:29:31;;;;;;;2.70;2.37;;;;;;;;;;5116080;27;20468;-78
2021/10/05 00:31:58;;;;;;;2.97;2.67;;;;;;;;;;5104412;27;21258;-78
2021/10/05 00:34:25;;;;;;;3.00;2.57;;;;;;;;;;5100982;28;20943;-78
2021/10/05 00:36:53;;;;;;;5.90;2.90;;;;;;;;;;5111356;28;20426;-80
2021/10/05 00:39:21;;;;;;;4.17;2.50;;;;;;;;;;5104989;27;21051;-78
2021/10/05 00:41:50;;;;;;;3.70;2.90;;;;;;;;;;5113546;28;20462;-81
2021/10/05 00:44:17;;;;;;;3.17;2.57;;;;;;;;;;5107785;28;20800;-80
2021/10/05 00:46:44;;;;;;;2.80;2.20;;;;;;;;;;5113357;28;20470;-80
2021/10/05 00:49:11;;;;;;;3.47;2.50;;;;;;;;;;5107340;28;20458;-78
2021/10/05 00:51:38;;;;;;;3.13;2.70;;;;;;;;;;5105955;27;20469;-79
2021/10/05 00:54:05;;;;;;;3.03;2.67;;;;;;;;;;5125123;27;20454;-80
2021/10/05 00:56:33;;;;;;;3.90;2.50;;;;;;;;;;5113427;27;20452;-78
2021/10/05 00:59:01;;;;;;;4.27;2.77;;;;;;;;;;5107581;28;20450;-80
2021/10/05 01:01:28;;;;;;;2.70;2.50;;;;;;;;;;5111259;28;20439;-81
2021/10/05 01:03:55;;;;;;;5.30;2.50;;;;;;;;;;5110969;28;20482;-79
2021/10/05 01:06:22;;;;;;;2.87;2.60;;;;;;;;;;5113184;27;20454;-79
2021/10/05 01:08:50;;;;;;;3.30;3.00;;;;;;;;;;5119071;27;20442;-81
2021/10/05 01:11:17;;;;;;;2.70;2.33;;;;;;;;;;5108279;27;21532;-80
2021/10/05 01:13:44;;;;;;;3.17;2.37;;;;;;;;;;5108131;27;20482;-80
2021/10/05 01:16:12;;;;;;;3.73;2.77;;;;;;;;;;5114745;28;20442;-80
2021/10/05 01:18:40;;;;;;;3.47;2.73;;;;;;;;;;5112289;27;20970;-80
2021/10/05 01:21:08;;;;;;;4.47;2.47;;;;;;;;;;5120916;27;21092;-78
2021/10/05 01:23:37;;;;;;;3.80;2.67;;;;;;;;;;5116813;27;20974;-78
2021/10/05 01:26:04;;;;;;;2.80;2.60;;;;;;;;;;5112499;28;20488;-79
2021/10/05 01:28:31;;;;;;;4.63;2.80;;;;;;;;;;5113413;28;20443;-79
2021/10/05 01:30:59;;;;;;;2.80;2.30;;;;;;;;;;5117404;27;20474;-80
2021/10/05 01:33:27;;;;;;;3.90;2.70;;;;;;;;;;5105823;27;20466;-80
2021/10/05 01:35:54;;;;;;;2.70;2.17;;;;;;;;;;5107659;27;20458;-79
2021/10/05 01:38:22;;;;;;;3.80;2.43;;;;;;;;;;5107967;27;20442;-80
2021/10/05 01:40:49;;;;;;;3.20;2.90;;;;;;;;;;5114250;28;20445;-79
2021/10/05 01:43:17;;;;;;;3.83;2.27;;;;;;;;;;5112224;28;20458;-80
2021/10/05 01:45:44;;;;;;;3.27;2.50;;;;;;;;;;5107844;27;20462;-80
2021/10/05 01:48:11;;;;;;;3.03;2.10;;;;;;;;;;5115506;27;20816;-80
2021/10/05 01:50:38;;;;;;;3.10;2.60;;;;;;;;;;5115656;27;20451;-80
2021/10/05 01:53:06;;;;;;;2.43;2.20;;;;;;;;;;5106426;27;20470;-79
2021/10/05 01:55:34;;;;;;;2.70;2.50;;;;;;;;;;5113739;28;20439;-81
2021/10/05 01:58:02;;;;;;;3.63;2.43;;;;;;;;;;5111754;28;20473;-80
2021/10/05 02:00:29;;;;;;;2.77;2.33;;;;;;;;;;5113754;27;20438;-79
2021/10/05 02:02:56;;;;;;;2.70;2.50;;;;;;;;;;5107988;27;20486;-78
2021/10/05 02:05:23;;;;;;;2.30;2.00;;;;;;;;;;5120000;27;20461;-80
2021/10/05 02:07:50;;;;;;;4.20;2.37;;;;;;;;;;5130808;27;20437;-79
2021/10/05 02:10:18;;;;;;;2.70;2.17;;;;;;;;;;5110403;27;20450;-78
2021/10/05 02:12:46;;;;;;;3.13;2.33;;;;;;;;;;5104832;27;20489;-79
2021/10/05 02:15:13;;;;;;;2.47;2.07;;;;;;;;;;5113031;28;20445;-78
2021/10/05 02:17:41;;;;;;;4.30;2.17;;;;;;;;;;5113365;28;20469;-78
2021/10/05 02:20:09;;;;;;;3.33;2.57;;;;;;;;;;5108183;27;20454;-79
2021/10/05 02:22:36;;;;;;;3.13;2.43;;;;;;;;;;5136772;27;20454;-79
2021/10/05 02:25:04;;;;;;;2.23;2.03;;;;;;;;;;5129802;27;20448;-79
2021/10/05 02:27:31;;;;;;;2.57;1.90;;;;;;;;;;5117552;27;20457;-79
2021/10/05 02:29:59;;;;;;;4.07;2.50;;;;;;;;;;5130090;27;20805;-79
2021/10/05 02:32:26;;;;;;;3.60;2.47;;;;;;;;;;5106011;27;21027;-79
2021/10/05 02:34:54;;;;;;;2.43;2.17;;;;;;;;;;5111345;28;20443;-79
2021/10/05 02:37:21;;;;;;;3.03;2.40;;;;;;;;;;5112461;28;20445;-80
2021/10/05 02:39:48;;;;;;;2.47;2.20;;;;;;;;;;5105766;27;20456;-78
2021/10/05 02:42:16;;;;;;;2.33;2.13;;;;;;;;;;5112850;28;20485;-78
2021/10/05 02:44:43;;;;;;;2.37;2.17;;;;;;;;;;5115381;28;20426;-79
2021/10/05 02:47:11;;;;;;;2.93;2.63;;;;;;;;;;5115906;27;20798;-80
2021/10/05 02:49:43;;;;;;;3.27;2.40;;;;;;;;;;5115839;27;20457;-78
2021/10/05 02:52:11;;;;;;;2.60;2.40;;;;;;;;;;5130238;27;20475;-78
2021/10/05 02:54:38;;;;;;;3.97;2.47;;;;;;;;;;5115420;27;20450;-80
2021/10/05 02:57:05;;;;;;;3.50;2.17;;;;;;;;;;5113343;28;20771;-81
2021/10/05 02:59:32;;;;;;;2.77;2.57;;;;;;;;;;5107564;27;20936;-78
2021/10/05 03:02:00;;;;;;;3.60;2.30;;;;;;;;;;5100339;27;20458;-78
2021/10/05 03:04:28;;;;;;;2.47;2.17;;;;;;;;;;5109497;27;20454;-81
2021/10/05 03:06:55;;;;;;;3.13;2.20;;;;;;;;;;5117028;27;20945;-78
2021/10/05 03:09:23;;;;;;;2.97;2.10;;;;;;;;;;5108660;27;20458;-78
2021/10/05 03:11:50;;;;;;;2.93;1.93;;;;;;;;;;5128409;27;20489;-80
2021/10/05 03:14:17;;;;;;;2.20;2.00;;;;;;;;;;5133491;27;20453;-78
2021/10/05 03:16:44;;;;;;;3.03;2.20;;;;;;;;;;5107397;27;20477;-78
2021/10/05 03:19:12;;;;;;;2.20;1.90;;;;;;;;;;5122295;27;20487;-81
2021/10/05 03:21:41;;;;;;;3.30;2.30;;;;;;;;;;5113001;27;20855;-81
2021/10/05 03:24:08;;;;;;;5.00;2.00;;;;;;;;;;5109579;28;20478;-78
2021/10/05 03:26:35;;;;;;;3.03;2.23;;;;;;;;;;5098860;27;20443;-79
2021/10/05 03:29:03;;;;;;;2.50;2.30;;;;;;;;;;5108633;28;20482;-80
2021/10/05 03:31:30;;;;;;;2.40;2.20;;;;;;;;;;5104647;27;20477;-81
2021/10/05 03:33:57;;;;;;;2.40;2.20;;;;;;;;;;5117893;27;20454;-80
2021/10/05 03:36:25;;;;;;;3.60;2.80;;;;;;;;;;5113314;27;20451;-80
2021/10/05 03:38:53;;;;;;;2.30;2.00;;;;;;;;;;5132056;27;20444;-79
2021/10/05 03:41:23;;;;;;;2.87;2.30;;;;;;;;;;5128550;27;20441;-79
2021/10/05 03:43:50;;;;;;;2.00;1.80;;;;;;;;;;5129545;27;20576;-78
2021/10/05 03:46:17;;;;;;;2.77;1.87;;;;;;;;;;5122121;27;20450;-78
2021/10/05 03:48:44;;;;;;;2.23;2.00;;;;;;;;;;5106226;27;20470;-77
2021/10/05 03:51:11;;;;;;;2.10;1.90;;;;;;;;;;5117671;27;20425;-80
2021/10/05 03:53:38;;;;;;;4.63;2.50;;;;;;;;;;5110454;28;20455;-78
2021/10/05 03:56:07;;;;;;;2.80;2.30;;;;;;;;;;5110000;28;20939;-81
2021/10/05 03:58:34;;;;;;;2.47;2.27;;;;;;;;;;5111683;28;20935;-79
2021/10/05 04:01:04;;;;;;;1.80;1.70;;;;;;;;;;5102953;28;21175;-79
2021/10/05 04:03:31;;;;;;;2.23;2.03;;;;;;;;;;5115822;27;20476;-80
2021/10/05 04:05:58;;;;;;;3.10;2.10;;;;;;;;;;5117811;27;20432;-79
2021/10/05 04:08:25;;;;;;;2.27;2.10;;;;;;;;;;5101912;28;20454;-79
2021/10/05 04:10:53;;;;;;;2.50;2.30;;;;;;;;;;5111632;28;20800;-78
2021/10/05 04:13:21;;;;;;;2.50;2.13;;;;;;;;;;5109370;28;20483;-79
2021/10/05 04:15:48;;;;;;;2.30;2.10;;;;;;;;;;5099118;28;20451;-78
2021/10/05 04:18:16;;;;;;;2.40;2.17;;;;;;;;;;5093637;28;20430;-81
2021/10/05 04:20:43;;;;;;;3.67;2.80;;;;;;;;;;5093535;28;20436;-80
2021/10/05 04:23:10;;;;;;;2.50;2.30;;;;;;;;;;5110563;27;20470;-80
2021/10/05 04:25:37;;;;;;;2.63;2.43;;;;;;;;;;5112630;27;20461;-80
2021/10/05 04:28:05;;;;;;;2.50;2.30;;;;;;;;;;5116232;27;21989;-79
2021/10/05 04:30:33;;;;;;;3.13;2.80;;;;;;;;;;5103983;27;20465;-78
2021/10/05 04:33:01;;;;;;;2.90;2.57;;;;;;;;;;5108518;28;20486;-78
2021/10/05 04:35:29;;;;;;;3.00;2.60;;;;;;;;;;5107505;28;20880;-78
2021/10/05 04:37:56;;;;;;;2.93;2.67;;;;;;;;;;5109963;28;20801;-80
2021/10/05 04:40:23;;;;;;;2.50;2.30;;;;;;;;;;5112305;28;20450;-81
2021/10/05 04:42:50;;;;;;;2.60;2.40;;;;;;;;;;5113676;27;20981;-78
2021/10/05 04:45:17;;;;;;;3.07;2.50;;;;;;;;;;5108037;28;20794;-78
2021/10/05 04:47:46;;;;;;;4.50;2.40;;;;;;;;;;5116304;28;20434;-79
2021/10/05 04:50:14;;;;;;;2.93;2.73;;;;;;;;;;5114491;27;20457;-79
2021/10/05 04:52:41;;;;;;;2.60;2.40;;;;;;;;;;5129747;28;20560;-80
2021/10/05 04:55:09;;;;;;;2.63;2.30;;;;;;;;;;5130364;27;20460;-80
2021/10/05 04:57:36;;;;;;;2.33;2.13;;;;;;;;;;5100814;28;20463;-79
2021/10/05 05:00:05;;;;;;;2.67;2.40;;;;;;;;;;5110265;28;20446;-80
2021/10/05 05:02:32;;;;;;;2.50;2.27;;;;;;;;;;5111921;28;20454;-80
2021/10/05 05:05:00;;;;;;;3.20;2.80;;;;;;;;;;5103495;27;20460;-78
2021/10/05 05:07:29;;;;;;;3.03;2.20;;;;;;;;;;5112271;27;20454;-80
2021/10/05 05:09:56;;;;;;;2.60;2.40;;;;;;;;;;5126675;27;20440;-81
2021/10/05 05:12:23;;;;;;;3.07;2.60;;;;;;;;;;5117856;27;20501;-80
2021/10/05 05:14:50;;;;;;;3.33;2.93;;;;;;;;;;5111265;28;20446;-78
2021/10/05 05:17:17;;;;;;;2.67;2.20;;;;;;;;;;5109313;28;20450;-80
2021/10/05 05:20:17;;;;;;;2.73;2.50;;;;;;;;;;5109216;28;20446;-79
2021/10/05 05:22:46;;;;;;;3.13;2.60;;;;;;;;;;5122248;27;20455;-82
2021/10/05 05:25:13;;;;;;;3.27;2.97;;;;;;;;;;5110461;27;20507;-78
2021/10/05 05:27:40;;;;;;;3.00;2.80;;;;;;;;;;5088614;28;20437;-80
2021/10/05 05:30:08;;;;;;;2.97;2.67;;;;;;;;;;5089786;28;20450;-79
2021/10/05 05:32:35;;;;;;;3.27;2.90;;;;;;;;;;5101563;28;20489;-79
2021/10/05 05:35:03;;;;;;;3.33;3.03;;;;;;;;;;5116995;27;20429;-80
2021/10/05 05:37:30;;;;;;;4.00;3.17;;;;;;;;;;5106190;27;20477;-80
2021/10/05 05:39:58;;;;;;;3.10;2.90;;;;;;;;;;5104670;28;20446;-81
2021/10/05 05:42:26;;;;;;;4.87;3.27;;;;;;;;;;5110525;28;20466;-80
2021/10/05 05:44:53;;;;;;;4.20;3.40;;;;;;;;;;5104661;28;20473;-80
2021/10/05 05:47:20;;;;;;;3.80;2.93;;;;;;;;;;5108120;27;20473;-77
2021/10/05 05:49:47;;;;;;;4.03;3.13;;;;;;;;;;5118346;27;20426;-79
2021/10/05 05:52:14;;;;;;;3.30;3.00;;;;;;;;;;5109867;27;20493;-80
2021/10/05 05:54:41;;;;;;;4.60;3.40;;;;;;;;;;5114086;28;20767;-79
2021/10/05 05:57:10;;;;;;;3.60;3.00;;;;;;;;;;5113721;28;20450;-79
2021/10/05 05:59:37;;;;;;;3.90;3.40;;;;;;;;;;5102361;27;20442;-78
2021/10/05 06:02:04;;;;;;;4.37;3.97;;;;;;;;;;5111619;27;20934;-79
2021/10/05 06:04:31;;;;;;;3.97;3.40;;;;;;;;;;5120128;27;20436;-78
2021/10/05 06:06:59;;;;;;;6.20;3.70;;;;;;;;;;5108530;27;20465;-77
2021/10/05 06:09:26;;;;;;;6.80;4.03;;;;;;;;;;5112831;27;21121;-80
2021/10/05 06:12:00;;;;;;;4.63;3.57;;;;;;;;;;5112139;28;20473;-78
2021/10/05 06:14:29;;;;;;;4.80;3.27;;;;;;;;;;5106743;27;20450;-82
2021/10/05 06:16:56;;;;;;;3.90;3.60;;;;;;;;;;5105305;28;21251;-79
2021/10/05 06:19:23;;;;;;;4.70;3.27;;;;;;;;;;5105947;27;20465;-79
2021/10/05 06:21:50;;;;;;;4.00;3.60;;;;;;;;;;5113006;27;20484;-77
2021/10/05 06:24:18;;;;;;;4.10;3.80;;;;;;;;;;5133464;27;20445;-78
2021/10/05 06:26:45;;;;;;;4.80;4.27;;;;;;;;;;5121488;27;20458;-79
2021/10/05 06:29:12;;;;;;;5.60;4.67;;;;;;;;;;5110912;27;20442;-79
2021/10/05 06:31:41;;;;;;;4.50;3.60;;;;;;;;;;5101082;27;20462;-79
2021/10/05 06:34:08;;;;;;;3.90;3.33;;;;;;;;;;5134405;27;20497;-80
2021/10/05 06:36:35;;;;;;;6.17;4.10;;;;;;;;;;5122481;27;20441;-79
2021/10/05 06:39:02;;;;;;;3.77;3.30;;;;;;;;;;5113052;28;20451;-78
2021/10/05 06:41:29;;;;;;;5.30;3.50;;;;;;;;;;5116469;27;20446;-77
2021/10/05 06:43:57;;;;;;;4.43;3.87;;;;;;;;;;5119823;27;20459;-77
2021/10/05 06:46:24;;;;;;;4.27;3.37;;;;;;;;;;5104522;27;20443;-76
2021/10/05 06:48:52;;;;;;;5.93;3.50;;;;;;;;;;5106316;28;20935;-76
2021/10/05 06:51:20;;;;;;;4.47;3.60;;;;;;;;;;5099784;28;20439;-76
2021/10/05 06:53:47;;;;;;;3.83;3.50;;;;;;;;;;5096763;27;20895;-77
2021/10/05 06:56:14;;;;;;;4.23;3.83;;;;;;;;;;5110421;27;20481;-76
2021/10/05 06:58:41;;;;;;;9.10;4.00;;;;;;;;;;5114358;28;20497;-74
2021/10/05 07:01:08;;;;;;;6.83;3.57;;;;;;;;;;5107455;27;20506;-76
2021/10/05 07:03:36;;;;;;;4.13;3.80;;;;;;;;;;5104652;27;20460;-76
2021/10/05 07:06:04;;;;;;;4.10;3.20;;;;;;;;;;5116404;27;20431;-76
2021/10/05 07:08:31;;;;;;;4.33;3.77;;;;;;;;;;5126512;27;20465;-79
2021/10/05 07:10:59;;;;;;;4.90;4.23;;;;;;;;;;5125081;27;20431;-79
2021/10/05 07:13:26;;;;;;;4.50;3.90;;;;;;;;;;5105581;27;20490;-79
2021/10/05 07:15:53;;;;;;;5.47;3.50;;;;;;;;;;5103230;27;20436;-80
2021/10/05 07:18:20;;;;;;;4.97;4.33;;;;;;;;;;5126185;27;20946;-78
2021/10/05 07:20:47;;;;;;;4.53;4.13;;;;;;;;;;5120097;27;20433;-78
2021/10/05 07:23:16;;;;;;;4.93;3.53;;;;;;;;;;5109030;27;20474;-76
2021/10/05 07:25:43;;;;;;;4.27;3.77;;;;;;;;;;5109465;28;20994;-77
2021/10/05 07:28:11;;;;;;;4.93;4.10;;;;;;;;;;5113900;28;20442;-79
2021/10/05 07:30:38;;;;;;;3.70;3.30;;;;;;;;;;5104434;27;20440;-79
2021/10/05 07:33:07;;;;;;;3.20;2.90;;;;;;;;;;5125548;27;20485;-78
2021/10/05 07:35:34;;;;;;;5.23;3.37;;;;;;;;;;5112112;27;20458;-80
2021/10/05 07:38:02;;;;;;;3.10;2.77;;;;;;;;;;5115618;27;20438;-78
2021/10/05 07:40:31;;;;;;;6.80;2.97;;;;;;;;;;5097099;27;20450;-78
2021/10/05 07:42:59;;;;;;;2.70;2.50;;;;;;;;;;5104125;27;20470;-79
2021/10/05 07:45:27;;;;;;;4.00;3.30;;;;;;;;;;5109681;28;20442;-79
2021/10/05 07:47:55;;;;;;;3.40;2.87;;;;;;;;;;5117958;27;20437;-81
2021/10/05 07:50:22;;;;;;;3.33;2.57;;;;;;;;;;5113758;27;20440;-77
2021/10/05 07:52:49;;;;;;;3.53;3.23;;;;;;;;;;5118057;27;20493;-77
2021/10/05 07:55:17;;;;;;;4.87;2.53;;;;;;;;;;5112783;27;20492;-76
2021/10/05 07:57:46;;;;;;;2.60;2.40;;;;;;;;;;5098209;27;20466;-78
2021/10/05 08:00:14;;;;;;;2.27;2.03;;;;;;;;;;5091107;28;20809;-76
2021/10/05 08:02:44;;;;;;;3.10;2.03;;;;;;;;;;5096704;27;20558;-77
2021/10/05 08:05:11;;;;;;;2.13;1.90;;;;;;;;;;5112509;27;20446;-78
2021/10/05 08:07:38;;;;;;;3.47;3.17;;;;;;;;;;5117940;27;20425;-77
2021/10/05 08:10:06;;;;;;;3.50;2.33;;;;;;;;;;5128146;27;20438;-77
2021/10/05 08:12:33;;;;;;;3.20;1.90;;;;;;;;;;5108814;27;20490;-78
2021/10/05 08:15:01;;;;;;;2.23;2.03;;;;;;;;;;5122901;27;20426;-77
2021/10/05 08:17:28;;;;;;;3.40;1.90;;;;;;;;;;5105916;27;20436;-78
2021/10/05 08:19:55;;;;;;;2.73;2.30;;;;;;;;;;5103735;27;20433;-76
2021/10/05 08:22:23;;;;;;;2.37;2.17;;;;;;;;;;5106272;27;20474;-79
2021/10/05 08:24:50;;;;;;;2.63;2.27;;;;;;;;;;5099106;27;20458;-75
2021/10/05 08:27:17;;;;;;;3.13;2.03;;;;;;;;;;5108013;28;20425;-77
2021/10/05 08:29:45;;;;;;;2.90;2.40;;;;;;;;;;5116776;27;20438;-76
2021/10/05 08:32:14;;;;;;;1.90;1.70;;;;;;;;;;5101138;28;20550;-79
2021/10/05 08:34:41;;;;;;;2.77;2.00;;;;;;;;;;5100026;28;20535;-78
2021/10/05 08:37:09;;;;;;;1.83;1.63;;;;;;;;;;5117871;28;20440;-79
2021/10/05 08:39:36;;;;;;;1.60;1.50;;;;;;;;;;5112890;28;20437;-77
2021/10/05 08:42:04;;;;;;;3.43;2.10;;;;;;;;;;5105575;28;20421;-76
2021/10/05 08:44:31;;;;;;;2.53;1.93;;;;;;;;;;5112676;28;20450;-78
2021/10/05 08:46:58;;;;;;;2.13;1.93;;;;;;;;;;5112355;28;20473;-78
2021/10/05 08:49:27;;;;;;;2.30;2.10;;;;;;;;;;5128733;28;20441;-79
2021/10/05 08:51:54;;;;;;;2.43;2.00;;;;;;;;;;5106697;27;20575;-77
2021/10/05 08:54:22;;;;;;;2.60;2.00;;;;;;;;;;5108511;28;20486;-77
2021/10/05 08:56:49;;;;;;;7.70;1.50;;;;;;;;;;5104725;28;20796;-78
2021/10/05 08:59:17;;;;;;;1.80;1.60;;;;;;;;;;5099715;28;20429;-81
2021/10/05 09:01:44;;;;;;;2.00;1.60;;;;;;;;;;5110341;28;20426;-80
2021/10/05 09:04:12;;;;;;;2.77;1.83;;;;;;;;;;5105148;28;20483;-77
2021/10/05 09:06:43;;;;;;;4.90;2.23;;;;;;;;;;5102477;27;20474;-84
2021/10/05 09:09:10;;;;;;;2.00;1.80;;;;;;;;;;5117085;27;20453;-84
2021/10/05 09:11:39;;;;;;;2.03;1.70;;;;;;;;;;5109286;28;20772;-77
2021/10/05 09:14:06;;;;;;;2.80;1.80;;;;;;;;;;5103967;28;20484;-79
2021/10/05 09:16:34;;;;;;;1.70;1.60;;;;;;;;;;5109818;28;20430;-76
2021/10/05 09:19:03;;;;;;;1.73;1.50;;;;;;;;;;5104336;28;20430;-79
2021/10/05 09:21:31;;;;;;;1.87;1.67;;;;;;;;;;5094719;28;20470;-77
2021/10/05 09:24:01;;;;;;;1.80;1.50;;;;;;;;;;5111447;27;20994;-78
2021/10/05 09:26:43;;;;;;;1.80;1.60;;;;;;;;;;5114280;27;20422;-76
2021/10/05 09:29:13;;;;;;;2.43;1.50;;;;;;;;;;5103782;28;21009;-79
2021/10/05 09:31:47;;;;;;;1.70;1.60;;;;;;;;;;5109465;27;20426;-77
2021/10/05 09:34:15;;;;;;;2.13;1.53;;;;;;;;;;5103108;27;20486;-75
2021/10/05 09:36:42;;;;;;;1.40;1.30;;;;;;;;;;5103716;27;20429;-75
2021/10/05 09:39:10;;;;;;;2.70;1.60;;;;;;;;;;5113703;27;20425;-78
2021/10/05 09:41:38;;;;;;;2.73;1.50;;;;;;;;;;5117670;27;20428;-77
2021/10/05 09:44:07;;;;;;;2.43;1.40;;;;;;;;;;5131963;27;20431;-76
2021/10/05 09:46:35;;;;;;;1.53;1.20;;;;;;;;;;5108651;27;20423;-78
2021/10/05 09:49:02;;;;;;;1.43;1.30;;;;;;;;;;5099792;27;20455;-78
2021/10/05 09:51:30;;;;;;;2.13;1.40;;;;;;;;;;5104540;27;20463;-76
2021/10/05 09:53:58;;;;;;;4.40;1.30;;;;;;;;;;5118636;27;20493;-78
2021/10/05 09:56:27;;;;;;;1.80;1.50;;;;;;;;;;5126411;27;20440;-78
2021/10/05 09:58:55;;;;;;;3.50;1.40;;;;;;;;;;5115811;27;21103;-78
2021/10/05 10:01:23;;;;;;;1.40;1.30;;;;;;;;;;5109857;27;20462;-79
2021/10/05 10:03:51;;;;;;;1.67;1.40;;;;;;;;;;5113316;27;20422;-78
2021/10/05 10:06:18;;;;;;;1.70;1.43;;;;;;;;;;5113668;27;20455;-76
2021/10/05 10:08:46;;;;;;;2.60;2.20;;;;;;;;;;5118821;27;20765;-77
2021/10/05 10:11:14;;;;;;;2.07;1.70;;;;;;;;;;5105839;27;20468;-76
2021/10/05 10:13:44;;;;;;;1.80;1.60;;;;;;;;;;5104684;27;21144;-79
2021/10/05 10:16:11;;;;;;;3.57;1.40;;;;;;;;;;5109614;28;20458;-77
2021/10/05 10:18:38;;;;;;;1.80;1.40;;;;;;;;;;5108081;27;20464;-78
2021/10/05 10:21:07;;;;;;;1.70;1.60;;;;;;;;;;5117555;27;20467;-79
2021/10/05 10:23:36;;;;;;;2.47;1.33;;;;;;;;;;5117574;27;20466;-79
2021/10/05 10:26:04;;;;;;;1.80;1.40;;;;;;;;;;5127795;27;20413;-79
2021/10/05 10:28:33;;;;;;;5.03;1.53;;;;;;;;;;5107890;27;20503;-80
2021/10/05 10:31:03;;;;;;;3.80;1.57;;;;;;;;;;5113225;28;20411;-79
2021/10/05 10:33:42;;;;;;;1.40;1.23;;;;;;;;;;5109366;28;21069;-81
2021/10/05 10:36:10;;;;;;;1.40;1.30;;;;;;;;;;5108850;27;20473;-77
2021/10/05 10:38:42;;;;;;;1.87;1.57;;;;;;;;;;5117131;27;20462;-76
2021/10/05 10:41:14;;;;;;;4.90;1.40;;;;;;;;;;5109006;27;20490;-77
2021/10/05 10:43:51;;;;;;;2.50;1.70;;;;;;;;;;5111595;28;20477;-77
2021/10/05 10:46:25;;;;;;;1.87;1.60;;;;;;;;;;5112890;28;20480;-76
2021/10/05 10:48:54;;;;;;;5.10;2.03;;;;;;;;;;5106772;27;20474;-78
2021/10/05 10:51:21;;;;;;;1.90;1.57;;;;;;;;;;5110403;27;20845;-78
2021/10/05 10:53:49;;;;;;;3.43;1.70;;;;;;;;;;5115908;28;20484;-77
2021/10/05 10:56:16;;;;;;;2.23;1.43;;;;;;;;;;5114087;27;20453;-77
2021/10/05 10:58:45;;;;;;;2.30;1.90;;;;;;;;;;5113618;27;20801;-79
2021/10/05 11:01:14;;;;;;;1.73;1.50;;;;;;;;;;5118237;27;20461;-77
2021/10/05 11:03:43;;;;;;;2.10;1.33;;;;;;;;;;5106766;27;20444;-79
2021/10/05 11:06:14;;;;;;;1.87;1.53;;;;;;;;;;5112212;28;20442;-79
2021/10/05 11:08:41;;;;;;;5.60;2.13;;;;;;;;;;5113541;28;20442;-77
2021/10/05 11:11:08;;;;;;;1.73;1.20;;;;;;;;;;5103001;27;20461;-76
2021/10/05 11:13:36;;;;;;;2.13;1.43;;;;;;;;;;5111373;27;20942;-78
2021/10/05 11:16:04;;;;;;;3.73;2.00;;;;;;;;;;5114790;28;20448;-78
2021/10/05 11:18:32;;;;;;;3.43;1.50;;;;;;;;;;5111886;28;20465;-80
2021/10/05 11:21:04;;;;;;;3.40;1.80;;;;;;;;;;5115058;27;20412;-76
2021/10/05 11:23:31;;;;;;;2.97;2.10;;;;;;;;;;5110544;27;20478;-78
2021/10/05 11:26:00;;;;;;;3.23;1.60;;;;;;;;;;5113170;27;20449;-78
2021/10/05 11:28:28;;;;;;;2.20;1.93;;;;;;;;;;5112746;28;20441;-78
2021/10/05 11:30:56;;;;;;;3.30;1.90;;;;;;;;;;5116242;27;20816;-77
2021/10/05 11:33:26;;;;;;;7.80;2.00;;;;;;;;;;5127586;27;20466;-78
2021/10/05 11:35:53;;;;;;;1.47;1.37;;;;;;;;;;5093636;27;20483;-76
2021/10/05 11:38:22;;;;;;;3.43;2.13;;;;;;;;;;5111921;27;20489;-78
2021/10/05 11:40:51;;;;;;;2.20;1.80;;;;;;;;;;5113271;27;20955;-76
2021/10/05 11:43:18;;;;;;;3.30;1.80;;;;;;;;;;5108012;28;20473;-76
2021/10/05 11:45:45;;;;;;;2.83;1.70;;;;;;;;;;5108082;27;20485;-79
2021/10/05 11:48:12;;;;;;;4.93;1.73;;;;;;;;;;5110562;28;20442;-77
2021/10/05 11:50:39;;;;;;;2.97;1.80;;;;;;;;;;5107960;28;20469;-77
2021/10/05 11:53:07;;;;;;;4.00;1.93;;;;;;;;;;5116815;27;20451;-77
2021/10/05 11:55:37;;;;;;;4.70;2.27;;;;;;;;;;5108147;27;20481;-77
2021/10/05 11:58:04;;;;;;;5.00;1.90;;;;;;;;;;5111182;28;20446;-78
2021/10/05 12:00:31;;;;;;;2.20;1.83;;;;;;;;;;5112151;28;20962;-79
2021/10/05 12:02:58;;;;;;;2.93;1.93;;;;;;;;;;5104510;27;20478;-80
2021/10/05 12:05:26;;;;;;;2.90;2.00;;;;;;;;;;5127348;27;20458;-85
2021/10/05 12:07:53;;;;;;;2.23;1.77;;;;;;;;;;5113893;27;20427;-80
2021/10/05 12:10:21;;;;;;;6.40;2.57;;;;;;;;;;5115383;27;20481;-79
2021/10/05 12:12:50;;;;;;;3.50;2.10;;;;;;;;;;5123799;27;20890;-87
2021/10/05 12:15:20;;;;;;;5.73;2.20;;;;;;;;;;5106293;27;20487;-77
2021/10/05 12:18:01;;;;;;;2.87;2.03;;;;;;;;;;5108704;28;20598;-77
2021/10/05 12:20:28;;;;;;;2.20;1.90;;;;;;;;;;5109847;28;20492;-78
2021/10/05 12:22:55;;;;;;;3.80;2.23;;;;;;;;;;5109310;27;20488;-76
2021/10/05 12:25:24;;;;;;;2.73;2.10;;;;;;;;;;5116345;27;20441;-77
2021/10/05 12:27:53;;;;;;;4.20;1.83;;;;;;;;;;5101258;28;20461;-79
2021/10/05 12:30:22;;;;;;;3.80;2.00;;;;;;;;;;5107249;27;20454;-78
2021/10/05 12:32:50;;;;;;;4.10;1.87;;;;;;;;;;5100495;27;21217;-79
2021/10/05 12:35:22;;;;;;;3.23;1.70;;;;;;;;;;5108478;28;20497;-77
2021/10/05 12:37:56;;;;;;;2.80;2.00;;;;;;;;;;5109686;28;20945;-77
2021/10/05 12:40:24;;;;;;;5.90;2.00;;;;;;;;;;5104413;28;20451;-86
2021/10/05 12:42:53;;;;;;;2.83;1.60;;;;;;;;;;5106237;27;20769;-76
2021/10/05 12:45:22;;;;;;;2.90;1.30;;;;;;;;;;5108630;28;20519;-77
2021/10/05 12:47:51;;;;;;;2.10;1.40;;;;;;;;;;5096414;28;20459;-78
2021/10/05 12:50:18;;;;;;;2.10;1.60;;;;;;;;;;5090235;28;20438;-77
2021/10/05 12:52:50;;;;;;;2.50;1.60;;;;;;;;;;5110762;28;20474;-77
2021/10/05 12:55:17;;;;;;;2.53;1.27;;;;;;;;;;5117504;27;20480;-76
2021/10/05 12:57:44;;;;;;;1.93;1.67;;;;;;;;;;5134282;27;20438;-79
2021/10/05 13:00:15;;;;;;;2.60;1.50;;;;;;;;;;5125119;27;21002;-77
2021/10/05 13:02:42;;;;;;;2.00;1.40;;;;;;;;;;5118650;27;20461;-78
2021/10/05 13:05:09;;;;;;;5.47;1.60;;;;;;;;;;5118782;27;20456;-77
2021/10/05 13:07:36;;;;;;;3.50;1.37;;;;;;;;;;5120320;27;20464;-77
2021/10/05 13:10:04;;;;;;;3.83;1.37;;;;;;;;;;5136050;27;20433;-77
2021/10/05 13:12:32;;;;;;;2.60;1.60;;;;;;;;;;5114135;27;20803;-77
2021/10/05 13:14:59;;;;;;;3.17;1.30;;;;;;;;;;5114780;28;20482;-76
2021/10/05 13:17:27;;;;;;;2.93;1.33;;;;;;;;;;5117308;28;20446;-77
2021/10/05 13:19:55;;;;;;;3.43;1.60;;;;;;;;;;5109998;27;20481;-78
2021/10/05 13:22:22;;;;;;;2.10;1.53;;;;;;;;;;5118950;27;20446;-78
2021/10/05 13:24:49;;;;;;;4.20;1.53;;;;;;;;;;5120380;27;20448;-77
2021/10/05 13:27:16;;;;;;;2.17;1.40;;;;;;;;;;5109466;27;20462;-76
2021/10/05 13:29:44;;;;;;;3.20;1.53;;;;;;;;;;5113184;28;20434;-77
2021/10/05 13:32:11;;;;;;;2.07;1.30;;;;;;;;;;5111480;28;20446;-78
2021/10/05 13:34:40;;;;;;;2.47;1.60;;;;;;;;;;5109974;27;20826;-77
2021/10/05 13:37:07;;;;;;;2.70;1.30;;;;;;;;;;5106258;27;20458;-78
2021/10/05 13:39:34;;;;;;;2.93;1.40;;;;;;;;;;5115561;27;21779;-76
2021/10/05 13:42:02;;;;;;;1.60;1.10;;;;;;;;;;5114746;27;20442;-74
2021/10/05 13:44:29;;;;;;;3.87;1.30;;;;;;;;;;5110463;27;20758;-77
2021/10/05 13:46:56;;;;;;;4.00;1.50;;;;;;;;;;5113294;28;20450;-79
2021/10/05 13:49:23;;;;;;;2.43;1.60;;;;;;;;;;5106688;27;20459;-77
2021/10/05 13:51:52;;;;;;;2.07;1.63;;;;;;;;;;5125849;27;20444;-77
2021/10/05 13:54:19;;;;;;;2.20;2.00;;;;;;;;;;5117720;27;20443;-77
2021/10/05 13:56:47;;;;;;;2.73;1.53;;;;;;;;;;5105869;27;20462;-77
2021/10/05 13:59:14;;;;;;;5.57;1.60;;;;;;;;;;5114007;28;20446;-77
2021/10/05 14:01:41;;;;;;;2.13;1.40;;;;;;;;;;5114407;28;20431;-76
2021/10/05 14:04:08;;;;;;;1.83;1.40;;;;;;;;;;5113015;27;20501;-76
2021/10/05 14:06:35;;;;;;;1.80;1.33;;;;;;;;;;5116105;27;20458;-78
2021/10/05 14:09:04;;;;;;;2.17;1.40;;;;;;;;;;5112694;27;20791;-76
2021/10/05 14:11:31;;;;;;;3.83;1.50;;;;;;;;;;5103183;27;20470;-80
2021/10/05 14:13:59;;;;;;;2.60;1.33;;;;;;;;;;5099053;28;20537;-78
2021/10/05 14:16:26;;;;;;;3.00;1.40;;;;;;;;;;5104630;27;20488;-77
2021/10/05 14:18:53;;;;;;;1.63;1.37;;;;;;;;;;5114306;28;20426;-76
2021/10/05 14:21:20;;;;;;;3.20;1.33;;;;;;;;;;5116426;27;20550;-78
2021/10/05 14:23:48;;;;;;;1.97;1.33;;;;;;;;;;5118945;27;20453;-78
2021/10/05 14:26:17;;;;;;;2.10;1.80;;;;;;;;;;5117997;27;20432;-78
2021/10/05 14:28:45;;;;;;;2.50;1.77;;;;;;;;;;5111612;28;20452;-77
2021/10/05 14:31:12;;;;;;;3.17;1.63;;;;;;;;;;5113081;28;20423;-77
2021/10/05 14:33:39;;;;;;;2.20;2.00;;;;;;;;;;5109214;27;20444;-80
2021/10/05 14:36:07;;;;;;;2.33;1.40;;;;;;;;;;5112327;27;20471;-79
2021/10/05 14:38:34;;;;;;;2.10;1.73;;;;;;;;;;5108678;27;20478;-78
2021/10/05 14:41:01;;;;;;;1.97;1.60;;;;;;;;;;5115151;27;20431;-77
2021/10/05 14:43:30;;;;;;;2.60;1.47;;;;;;;;;;5106118;27;20483;-76
2021/10/05 14:45:58;;;;;;;3.20;1.57;;;;;;;;;;5118751;27;20927;-78